sensor_id;sensor_type;location;lat;lon;timestamp;P1;durP1;ratioP1;P2;durP2;ratioP2
32297;SDS011;18782;48.984;8.548;2022-11-06T00:01:42;13.60;;;8.02;;
32297;SDS011;18782;48.984;8.548;2022-11-06T00:04:09;11.65;;;7.53;;
32297;SDS011;18782;48.984;8.548;2022-11-06T00:06:38;13.55;;;8.10;;
32297;SDS011;18782;48.984;8.548;2022-11-06T00:09:15;11.38;;;7.85;;
32297;SDS011;18782;48.984;8.548;2022-11-06T00:11:44;13.40;;;7.90;;
32297;SDS011;18782;48.984;8.548;2022-11-06T00:14:13;11.05;;;6.70;;
32297;SDS011;18782;48.984;8.548;2022-11-06T00:16:41;13.32;;;7.07;;
32297;SDS011;18782;48.984;8.548;2022-11-06T00:19:10;12.05;;;7.18;;
32297;SDS011;18782;48.984;8.548;2022-11-06T00:21:39;11.32;;;6.95;;
32297;SDS011;18782;48.984;8.548;2022-11-06T00:24:07;10.70;;;6.60;;
32297;SDS011;18782;48.984;8.548;2022-11-06T00:26:37;10.10;;;7.20;;
32297;SDS011;18782;48.984;8.548;2022-11-06T00:29:06;10.00;;;6.70;;
32297;SDS011;18782;48.984;8.548;2022-11-06T00:31:34;14.43;;;7.35;;
32297;SDS011;18782;48.984;8.548;2022-11-06T00:34:03;11.60;;;7.13;;
32297;SDS011;18782;48.984;8.548;2022-11-06T00:36:32;13.13;;;6.65;;
32297;SDS011;18782;48.984;8.548;2022-11-06T00:39:02;9.95;;;6.57;;
32297;SDS011;18782;48.984;8.548;2022-11-06T00:41:30;10.15;;;6.18;;
32297;SDS011;18782;48.984;8.548;2022-11-06T00:43:58;11.43;;;6.97;;
32297;SDS011;18782;48.984;8.548;2022-11-06T00:46:27;12.48;;;7.57;;
32297;SDS011;18782;48.984;8.548;2022-11-06T00:48:55;11.57;;;7.20;;
32297;SDS011;18782;48.984;8.548;2022-11-06T00:51:25;11.25;;;7.00;;
32297;SDS011;18782;48.984;8.548;2022-11-06T00:53:54;9.20;;;6.53;;
32297;SDS011;18782;48.984;8.548;2022-11-06T00:56:24;11.13;;;7.43;;
32297;SDS011;18782;48.984;8.548;2022-11-06T00:58:53;10.18;;;6.50;;
32297;SDS011;18782;48.984;8.548;2022-11-06T01:01:22;12.27;;;7.03;;
32297;SDS011;18782;48.984;8.548;2022-11-06T01:03:51;10.85;;;6.50;;
32297;SDS011;18782;48.984;8.548;2022-11-06T01:06:22;11.50;;;6.13;;
32297;SDS011;18782;48.984;8.548;2022-11-06T01:08:52;11.13;;;6.72;;
32297;SDS011;18782;48.984;8.548;2022-11-06T01:11:21;11.27;;;7.10;;
32297;SDS011;18782;48.984;8.548;2022-11-06T01:13:52;10.07;;;6.57;;
32297;SDS011;18782;48.984;8.548;2022-11-06T01:16:21;11.10;;;6.38;;
32297;SDS011;18782;48.984;8.548;2022-11-06T01:18:50;9.93;;;6.32;;
32297;SDS011;18782;48.984;8.548;2022-11-06T01:21:19;12.48;;;6.70;;
32297;SDS011;18782;48.984;8.548;2022-11-06T01:23:51;10.77;;;6.57;;
32297;SDS011;18782;48.984;8.548;2022-11-06T01:26:19;9.73;;;6.13;;
32297;SDS011;18782;48.984;8.548;2022-11-06T01:29:05;9.82;;;6.43;;
32297;SDS011;18782;48.984;8.548;2022-11-06T01:31:34;9.18;;;6.13;;
32297;SDS011;18782;48.984;8.548;2022-11-06T01:34:02;9.07;;;5.93;;
32297;SDS011;18782;48.984;8.548;2022-11-06T01:36:30;9.68;;;5.00;;
32297;SDS011;18782;48.984;8.548;2022-11-06T01:38:58;8.35;;;5.70;;
32297;SDS011;18782;48.984;8.548;2022-11-06T01:41:29;8.32;;;5.35;;
32297;SDS011;18782;48.984;8.548;2022-11-06T01:43:59;8.73;;;5.68;;
32297;SDS011;18782;48.984;8.548;2022-11-06T01:46:35;7.40;;;5.22;;
32297;SDS011;18782;48.984;8.548;2022-11-06T01:49:03;10.80;;;6.03;;
32297;SDS011;18782;48.984;8.548;2022-11-06T01:51:35;8.77;;;5.75;;
32297;SDS011;18782;48.984;8.548;2022-11-06T01:54:06;7.68;;;5.80;;
32297;SDS011;18782;48.984;8.548;2022-11-06T01:56:35;10.90;;;5.95;;
32297;SDS011;18782;48.984;8.548;2022-11-06T01:59:04;7.85;;;5.53;;
32297;SDS011;18782;48.984;8.548;2022-11-06T02:01:32;8.52;;;5.40;;
32297;SDS011;18782;48.984;8.548;2022-11-06T02:04:03;9.65;;;5.25;;
32297;SDS011;18782;48.984;8.548;2022-11-06T02:06:35;7.88;;;5.00;;
32297;SDS011;18782;48.984;8.548;2022-11-06T02:09:04;9.00;;;5.50;;
32297;SDS011;18782;48.984;8.548;2022-11-06T02:11:36;8.40;;;5.35;;
32297;SDS011;18782;48.984;8.548;2022-11-06T02:14:07;8.38;;;5.70;;
32297;SDS011;18782;48.984;8.548;2022-11-06T02:16:41;7.47;;;5.00;;
32297;SDS011;18782;48.984;8.548;2022-11-06T02:19:20;9.10;;;4.72;;
32297;SDS011;18782;48.984;8.548;2022-11-06T02:21:59;5.57;;;4.05;;
32297;SDS011;18782;48.984;8.548;2022-11-06T02:27:44;6.95;;;4.88;;
32297;SDS011;18782;48.984;8.548;2022-11-06T02:30:15;5.60;;;4.18;;
32297;SDS011;18782;48.984;8.548;2022-11-06T02:32:44;6.22;;;4.20;;
32297;SDS011;18782;48.984;8.548;2022-11-06T02:35:19;8.73;;;4.30;;
32297;SDS011;18782;48.984;8.548;2022-11-06T02:37:50;6.50;;;4.15;;
32297;SDS011;18782;48.984;8.548;2022-11-06T02:40:23;7.80;;;4.30;;
32297;SDS011;18782;48.984;8.548;2022-11-06T02:42:58;6.47;;;4.20;;
32297;SDS011;18782;48.984;8.548;2022-11-06T02:45:29;6.22;;;4.13;;
32297;SDS011;18782;48.984;8.548;2022-11-06T02:48:02;7.55;;;4.15;;
32297;SDS011;18782;48.984;8.548;2022-11-06T02:50:34;6.25;;;4.13;;
32297;SDS011;18782;48.984;8.548;2022-11-06T02:53:07;8.48;;;4.57;;
32297;SDS011;18782;48.984;8.548;2022-11-06T02:55:36;5.07;;;3.90;;
32297;SDS011;18782;48.984;8.548;2022-11-06T02:58:09;6.70;;;4.45;;
32297;SDS011;18782;48.984;8.548;2022-11-06T03:00:42;7.38;;;3.63;;
32297;SDS011;18782;48.984;8.548;2022-11-06T03:03:15;6.50;;;3.90;;
32297;SDS011;18782;48.984;8.548;2022-11-06T03:05:47;8.43;;;4.18;;
32297;SDS011;18782;48.984;8.548;2022-11-06T03:08:22;4.63;;;3.35;;
32297;SDS011;18782;48.984;8.548;2022-11-06T03:10:56;6.18;;;3.35;;
32297;SDS011;18782;48.984;8.548;2022-11-06T03:13:31;5.70;;;3.85;;
32297;SDS011;18782;48.984;8.548;2022-11-06T03:16:10;5.88;;;3.97;;
32297;SDS011;18782;48.984;8.548;2022-11-06T03:18:48;5.05;;;3.80;;
32297;SDS011;18782;48.984;8.548;2022-11-06T03:21:24;6.13;;;4.05;;
32297;SDS011;18782;48.984;8.548;2022-11-06T03:26:28;5.32;;;3.58;;
32297;SDS011;18782;48.984;8.548;2022-11-06T03:29:03;5.50;;;3.47;;
32297;SDS011;18782;48.984;8.548;2022-11-06T03:31:38;6.25;;;3.65;;
32297;SDS011;18782;48.984;8.548;2022-11-06T03:34:13;7.30;;;3.67;;
32297;SDS011;18782;48.984;8.548;2022-11-06T03:36:51;6.13;;;3.70;;
32297;SDS011;18782;48.984;8.548;2022-11-06T03:39:26;6.78;;;4.22;;
32297;SDS011;18782;48.984;8.548;2022-11-06T03:41:58;8.15;;;3.95;;
32297;SDS011;18782;48.984;8.548;2022-11-06T03:44:31;3.10;;;2.40;;
32297;SDS011;18782;48.984;8.548;2022-11-06T03:47:03;8.32;;;3.92;;
32297;SDS011;18782;48.984;8.548;2022-11-06T03:49:38;8.23;;;4.18;;
32297;SDS011;18782;48.984;8.548;2022-11-06T03:52:12;6.53;;;3.75;;
32297;SDS011;18782;48.984;8.548;2022-11-06T03:54:45;7.05;;;3.53;;
32297;SDS011;18782;48.984;8.548;2022-11-06T03:59:48;9.35;;;3.97;;
32297;SDS011;18782;48.984;8.548;2022-11-06T04:02:19;8.27;;;3.70;;
32297;SDS011;18782;48.984;8.548;2022-11-06T04:04:51;5.82;;;3.70;;
32297;SDS011;18782;48.984;8.548;2022-11-06T04:07:23;6.30;;;3.17;;
32297;SDS011;18782;48.984;8.548;2022-11-06T04:09:58;7.30;;;3.78;;
32297;SDS011;18782;48.984;8.548;2022-11-06T04:12:45;4.85;;;3.42;;
32297;SDS011;18782;48.984;8.548;2022-11-06T04:15:36;10.27;;;3.85;;
32297;SDS011;18782;48.984;8.548;2022-11-06T04:18:11;6.53;;;3.60;;
32297;SDS011;18782;48.984;8.548;2022-11-06T04:20:43;5.40;;;3.33;;
32297;SDS011;18782;48.984;8.548;2022-11-06T04:23:37;7.05;;;3.10;;
32297;SDS011;18782;48.984;8.548;2022-11-06T04:26:34;6.20;;;3.25;;
32297;SDS011;18782;48.984;8.548;2022-11-06T04:29:15;4.72;;;3.15;;
32297;SDS011;18782;48.984;8.548;2022-11-06T04:31:52;6.65;;;3.00;;
32297;SDS011;18782;48.984;8.548;2022-11-06T04:34:26;6.68;;;4.20;;
32297;SDS011;18782;48.984;8.548;2022-11-06T04:37:05;7.03;;;3.28;;
32297;SDS011;18782;48.984;8.548;2022-11-06T04:39:39;6.15;;;3.42;;
32297;SDS011;18782;48.984;8.548;2022-11-06T04:42:17;6.78;;;3.28;;
32297;SDS011;18782;48.984;8.548;2022-11-06T04:44:56;6.05;;;3.28;;
32297;SDS011;18782;48.984;8.548;2022-11-06T04:47:29;5.47;;;3.30;;
32297;SDS011;18782;48.984;8.548;2022-11-06T04:49:58;5.80;;;3.10;;
32297;SDS011;18782;48.984;8.548;2022-11-06T04:52:28;6.38;;;3.22;;
32297;SDS011;18782;48.984;8.548;2022-11-06T04:54:56;6.43;;;3.55;;
32297;SDS011;18782;48.984;8.548;2022-11-06T04:57:25;4.15;;;3.25;;
32297;SDS011;18782;48.984;8.548;2022-11-06T04:59:53;6.30;;;3.45;;
32297;SDS011;18782;48.984;8.548;2022-11-06T05:02:22;5.22;;;3.42;;
32297;SDS011;18782;48.984;8.548;2022-11-06T05:04:51;5.55;;;3.08;;
32297;SDS011;18782;48.984;8.548;2022-11-06T05:07:18;3.95;;;2.78;;
32297;SDS011;18782;48.984;8.548;2022-11-06T05:09:46;6.18;;;3.20;;
32297;SDS011;18782;48.984;8.548;2022-11-06T05:12:14;7.05;;;3.50;;
32297;SDS011;18782;48.984;8.548;2022-11-06T05:14:41;4.97;;;2.90;;
32297;SDS011;18782;48.984;8.548;2022-11-06T05:17:09;5.68;;;3.42;;
32297;SDS011;18782;48.984;8.548;2022-11-06T05:19:36;7.63;;;3.38;;
32297;SDS011;18782;48.984;8.548;2022-11-06T05:22:05;10.07;;;5.38;;
32297;SDS011;18782;48.984;8.548;2022-11-06T05:24:51;4.32;;;3.22;;
32297;SDS011;18782;48.984;8.548;2022-11-06T05:27:18;4.53;;;2.65;;
32297;SDS011;18782;48.984;8.548;2022-11-06T05:29:46;5.03;;;2.65;;
32297;SDS011;18782;48.984;8.548;2022-11-06T05:32:13;4.57;;;3.00;;
32297;SDS011;18782;48.984;8.548;2022-11-06T05:34:41;5.32;;;2.85;;
32297;SDS011;18782;48.984;8.548;2022-11-06T05:37:10;4.72;;;3.10;;
32297;SDS011;18782;48.984;8.548;2022-11-06T05:39:37;4.90;;;2.92;;
32297;SDS011;18782;48.984;8.548;2022-11-06T05:42:07;3.95;;;2.85;;
32297;SDS011;18782;48.984;8.548;2022-11-06T05:44:35;4.97;;;2.88;;
32297;SDS011;18782;48.984;8.548;2022-11-06T05:47:02;4.88;;;2.60;;
32297;SDS011;18782;48.984;8.548;2022-11-06T05:49:30;5.78;;;2.78;;
32297;SDS011;18782;48.984;8.548;2022-11-06T05:51:58;3.95;;;2.60;;
32297;SDS011;18782;48.984;8.548;2022-11-06T05:54:27;5.68;;;2.80;;
32297;SDS011;18782;48.984;8.548;2022-11-06T05:56:54;6.10;;;2.30;;
32297;SDS011;18782;48.984;8.548;2022-11-06T05:59:22;4.45;;;2.30;;
32297;SDS011;18782;48.984;8.548;2022-11-06T06:01:49;5.45;;;2.80;;
32297;SDS011;18782;48.984;8.548;2022-11-06T06:04:17;8.77;;;5.05;;
32297;SDS011;18782;48.984;8.548;2022-11-06T06:06:45;8.00;;;4.07;;
32297;SDS011;18782;48.984;8.548;2022-11-06T06:09:12;5.07;;;2.67;;
32297;SDS011;18782;48.984;8.548;2022-11-06T06:11:41;3.42;;;2.40;;
32297;SDS011;18782;48.984;8.548;2022-11-06T06:14:09;4.03;;;2.47;;
32297;SDS011;18782;48.984;8.548;2022-11-06T06:16:37;3.85;;;2.25;;
32297;SDS011;18782;48.984;8.548;2022-11-06T06:19:04;5.75;;;2.78;;
32297;SDS011;18782;48.984;8.548;2022-11-06T06:21:32;5.40;;;2.97;;
32297;SDS011;18782;48.984;8.548;2022-11-06T06:24:00;4.28;;;3.00;;
32297;SDS011;18782;48.984;8.548;2022-11-06T06:26:27;5.13;;;3.30;;
32297;SDS011;18782;48.984;8.548;2022-11-06T06:28:56;6.65;;;3.70;;
32297;SDS011;18782;48.984;8.548;2022-11-06T06:31:24;6.60;;;4.03;;
32297;SDS011;18782;48.984;8.548;2022-11-06T06:33:52;6.10;;;4.22;;
32297;SDS011;18782;48.984;8.548;2022-11-06T06:36:19;5.50;;;3.90;;
32297;SDS011;18782;48.984;8.548;2022-11-06T06:38:47;8.77;;;4.05;;
32297;SDS011;18782;48.984;8.548;2022-11-06T06:41:15;12.93;;;5.15;;
32297;SDS011;18782;48.984;8.548;2022-11-06T06:43:42;11.43;;;4.57;;
32297;SDS011;18782;48.984;8.548;2022-11-06T06:46:14;7.75;;;4.03;;
32297;SDS011;18782;48.984;8.548;2022-11-06T06:48:42;10.25;;;4.47;;
32297;SDS011;18782;48.984;8.548;2022-11-06T06:51:10;5.10;;;3.58;;
32297;SDS011;18782;48.984;8.548;2022-11-06T06:53:37;6.28;;;4.07;;
32297;SDS011;18782;48.984;8.548;2022-11-06T06:56:05;5.45;;;3.40;;
32297;SDS011;18782;48.984;8.548;2022-11-06T06:58:33;6.93;;;3.58;;
32297;SDS011;18782;48.984;8.548;2022-11-06T07:01:01;5.50;;;3.30;;
32297;SDS011;18782;48.984;8.548;2022-11-06T07:03:31;6.20;;;3.40;;
32297;SDS011;18782;48.984;8.548;2022-11-06T07:05:59;4.85;;;3.55;;
32297;SDS011;18782;48.984;8.548;2022-11-06T07:08:27;7.18;;;3.80;;
32297;SDS011;18782;48.984;8.548;2022-11-06T07:10:57;4.88;;;3.47;;
32297;SDS011;18782;48.984;8.548;2022-11-06T07:13:25;7.70;;;4.15;;
32297;SDS011;18782;48.984;8.548;2022-11-06T07:15:58;6.15;;;3.88;;
32297;SDS011;18782;48.984;8.548;2022-11-06T07:18:25;8.20;;;4.07;;
32297;SDS011;18782;48.984;8.548;2022-11-06T07:20:54;7.18;;;4.30;;
32297;SDS011;18782;48.984;8.548;2022-11-06T07:23:22;7.30;;;3.90;;
32297;SDS011;18782;48.984;8.548;2022-11-06T07:25:50;13.27;;;8.40;;
32297;SDS011;18782;48.984;8.548;2022-11-06T07:28:19;7.72;;;5.50;;
32297;SDS011;18782;48.984;8.548;2022-11-06T07:30:47;8.55;;;4.97;;
32297;SDS011;18782;48.984;8.548;2022-11-06T07:33:15;9.00;;;3.95;;
32297;SDS011;18782;48.984;8.548;2022-11-06T07:35:43;6.13;;;3.70;;
32297;SDS011;18782;48.984;8.548;2022-11-06T07:38:12;6.38;;;3.47;;
32297;SDS011;18782;48.984;8.548;2022-11-06T07:40:40;5.30;;;3.47;;
32297;SDS011;18782;48.984;8.548;2022-11-06T07:43:08;5.95;;;3.38;;
32297;SDS011;18782;48.984;8.548;2022-11-06T07:45:37;5.72;;;3.15;;
32297;SDS011;18782;48.984;8.548;2022-11-06T07:48:05;5.70;;;3.78;;
32297;SDS011;18782;48.984;8.548;2022-11-06T07:50:32;6.82;;;4.00;;
32297;SDS011;18782;48.984;8.548;2022-11-06T07:53:00;12.77;;;4.82;;
32297;SDS011;18782;48.984;8.548;2022-11-06T07:55:29;9.38;;;5.18;;
32297;SDS011;18782;48.984;8.548;2022-11-06T07:58:07;9.07;;;5.47;;
32297;SDS011;18782;48.984;8.548;2022-11-06T08:00:34;11.18;;;7.32;;
32297;SDS011;18782;48.984;8.548;2022-11-06T08:03:02;7.20;;;5.20;;
32297;SDS011;18782;48.984;8.548;2022-11-06T08:05:30;8.25;;;4.68;;
32297;SDS011;18782;48.984;8.548;2022-11-06T08:07:57;7.97;;;4.88;;
32297;SDS011;18782;48.984;8.548;2022-11-06T08:10:25;8.68;;;4.10;;
32297;SDS011;18782;48.984;8.548;2022-11-06T08:12:54;6.43;;;4.07;;
32297;SDS011;18782;48.984;8.548;2022-11-06T08:15:21;7.50;;;3.67;;
32297;SDS011;18782;48.984;8.548;2022-11-06T08:17:49;5.32;;;3.45;;
32297;SDS011;18782;48.984;8.548;2022-11-06T08:20:16;6.95;;;3.13;;
32297;SDS011;18782;48.984;8.548;2022-11-06T08:22:44;5.97;;;3.53;;
32297;SDS011;18782;48.984;8.548;2022-11-06T08:25:12;7.60;;;3.53;;
32297;SDS011;18782;48.984;8.548;2022-11-06T08:27:39;3.83;;;3.15;;
32297;SDS011;18782;48.984;8.548;2022-11-06T08:30:09;5.15;;;3.72;;
32297;SDS011;18782;48.984;8.548;2022-11-06T08:32:38;5.55;;;3.25;;
32297;SDS011;18782;48.984;8.548;2022-11-06T08:35:06;9.10;;;4.10;;
32297;SDS011;18782;48.984;8.548;2022-11-06T08:37:34;5.18;;;3.60;;
32297;SDS011;18782;48.984;8.548;2022-11-06T08:40:02;8.27;;;4.28;;
32297;SDS011;18782;48.984;8.548;2022-11-06T08:42:30;7.00;;;4.28;;
32297;SDS011;18782;48.984;8.548;2022-11-06T08:44:58;4.75;;;3.58;;
32297;SDS011;18782;48.984;8.548;2022-11-06T08:47:27;6.20;;;3.15;;
32297;SDS011;18782;48.984;8.548;2022-11-06T08:49:54;5.00;;;2.92;;
32297;SDS011;18782;48.984;8.548;2022-11-06T08:52:22;5.63;;;2.90;;
32297;SDS011;18782;48.984;8.548;2022-11-06T08:54:53;3.58;;;1.90;;
32297;SDS011;18782;48.984;8.548;2022-11-06T08:57:21;5.82;;;2.13;;
32297;SDS011;18782;48.984;8.548;2022-11-06T08:59:49;2.45;;;1.90;;
32297;SDS011;18782;48.984;8.548;2022-11-06T09:02:16;2.53;;;1.67;;
32297;SDS011;18782;48.984;8.548;2022-11-06T09:04:45;2.97;;;1.77;;
32297;SDS011;18782;48.984;8.548;2022-11-06T09:07:14;3.78;;;1.80;;
32297;SDS011;18782;48.984;8.548;2022-11-06T09:09:41;2.78;;;1.80;;
32297;SDS011;18782;48.984;8.548;2022-11-06T09:12:09;4.00;;;1.92;;
32297;SDS011;18782;48.984;8.548;2022-11-06T09:14:37;3.47;;;1.75;;
32297;SDS011;18782;48.984;8.548;2022-11-06T09:17:05;3.63;;;1.98;;
32297;SDS011;18782;48.984;8.548;2022-11-06T09:19:32;2.65;;;1.65;;
32297;SDS011;18782;48.984;8.548;2022-11-06T09:22:01;3.25;;;1.75;;
32297;SDS011;18782;48.984;8.548;2022-11-06T09:24:29;1.98;;;1.25;;
32297;SDS011;18782;48.984;8.548;2022-11-06T09:27:16;3.25;;;1.85;;
32297;SDS011;18782;48.984;8.548;2022-11-06T09:29:44;5.15;;;2.90;;
32297;SDS011;18782;48.984;8.548;2022-11-06T09:32:13;9.05;;;5.53;;
32297;SDS011;18782;48.984;8.548;2022-11-06T09:34:41;6.65;;;3.70;;
32297;SDS011;18782;48.984;8.548;2022-11-06T09:37:10;6.18;;;3.45;;
32297;SDS011;18782;48.984;8.548;2022-11-06T09:43:54;3.97;;;1.50;;
32297;SDS011;18782;48.984;8.548;2022-11-06T09:46:32;8.07;;;2.88;;
32297;SDS011;18782;48.984;8.548;2022-11-06T09:49:05;8.77;;;3.77;;
32297;SDS011;18782;48.984;8.548;2022-11-06T09:51:44;10.63;;;3.65;;
32297;SDS011;18782;48.984;8.548;2022-11-06T09:54:18;4.57;;;2.15;;
32297;SDS011;18782;48.984;8.548;2022-11-06T09:56:53;3.88;;;1.88;;
32297;SDS011;18782;48.984;8.548;2022-11-06T09:59:30;6.10;;;2.30;;
32297;SDS011;18782;48.984;8.548;2022-11-06T10:06:15;3.92;;;1.70;;
32297;SDS011;18782;48.984;8.548;2022-11-06T10:08:47;2.53;;;1.50;;
32297;SDS011;18782;48.984;8.548;2022-11-06T10:11:25;3.55;;;2.20;;
32297;SDS011;18782;48.984;8.548;2022-11-06T10:14:00;4.90;;;2.08;;
32297;SDS011;18782;48.984;8.548;2022-11-06T10:16:39;3.85;;;1.75;;
32297;SDS011;18782;48.984;8.548;2022-11-06T10:19:27;3.72;;;1.80;;
32297;SDS011;18782;48.984;8.548;2022-11-06T10:22:07;3.72;;;2.08;;
32297;SDS011;18782;48.984;8.548;2022-11-06T10:24:42;4.40;;;2.47;;
32297;SDS011;18782;48.984;8.548;2022-11-06T10:27:15;2.65;;;1.98;;
32297;SDS011;18782;48.984;8.548;2022-11-06T10:29:48;2.67;;;1.48;;
32297;SDS011;18782;48.984;8.548;2022-11-06T10:32:33;2.35;;;1.30;;
32297;SDS011;18782;48.984;8.548;2022-11-06T10:35:12;3.55;;;1.60;;
32297;SDS011;18782;48.984;8.548;2022-11-06T10:37:44;4.30;;;1.80;;
32297;SDS011;18782;48.984;8.548;2022-11-06T10:40:16;4.63;;;2.30;;
32297;SDS011;18782;48.984;8.548;2022-11-06T10:42:51;5.07;;;1.70;;
32297;SDS011;18782;48.984;8.548;2022-11-06T10:45:25;4.93;;;2.30;;
32297;SDS011;18782;48.984;8.548;2022-11-06T10:47:55;4.82;;;3.28;;
32297;SDS011;18782;48.984;8.548;2022-11-06T10:50:33;6.82;;;4.65;;
32297;SDS011;18782;48.984;8.548;2022-11-06T10:53:11;3.80;;;2.58;;
32297;SDS011;18782;48.984;8.548;2022-11-06T10:58:53;3.47;;;2.53;;
32297;SDS011;18782;48.984;8.548;2022-11-06T11:01:21;5.65;;;2.30;;
32297;SDS011;18782;48.984;8.548;2022-11-06T11:03:49;2.70;;;2.03;;
32297;SDS011;18782;48.984;8.548;2022-11-06T11:06:17;3.25;;;1.83;;
32297;SDS011;18782;48.984;8.548;2022-11-06T11:08:45;3.92;;;1.73;;
32297;SDS011;18782;48.984;8.548;2022-11-06T11:11:15;2.30;;;1.60;;
32297;SDS011;18782;48.984;8.548;2022-11-06T11:13:46;1.70;;;1.38;;
32297;SDS011;18782;48.984;8.548;2022-11-06T11:16:17;2.58;;;0.82;;
32297;SDS011;18782;48.984;8.548;2022-11-06T11:18:47;2.13;;;0.88;;
32297;SDS011;18782;48.984;8.548;2022-11-06T11:21:20;1.77;;;0.80;;
32297;SDS011;18782;48.984;8.548;2022-11-06T11:24:06;1.67;;;0.88;;
32297;SDS011;18782;48.984;8.548;2022-11-06T11:26:36;1.83;;;1.08;;
32297;SDS011;18782;48.984;8.548;2022-11-06T11:29:13;2.28;;;1.45;;
32297;SDS011;18782;48.984;8.548;2022-11-06T11:31:45;2.05;;;1.10;;
32297;SDS011;18782;48.984;8.548;2022-11-06T11:34:17;2.13;;;1.10;;
32297;SDS011;18782;48.984;8.548;2022-11-06T11:36:51;1.67;;;0.75;;
32297;SDS011;18782;48.984;8.548;2022-11-06T11:39:22;1.33;;;0.80;;
32297;SDS011;18782;48.984;8.548;2022-11-06T11:41:57;1.50;;;0.73;;
32297;SDS011;18782;48.984;8.548;2022-11-06T11:44:42;1.20;;;0.80;;
32297;SDS011;18782;48.984;8.548;2022-11-06T11:47:20;0.60;;;0.40;;
32297;SDS011;18782;48.984;8.548;2022-11-06T11:49:49;3.55;;;2.75;;
32297;SDS011;18782;48.984;8.548;2022-11-06T11:52:17;7.40;;;5.55;;
32297;SDS011;18782;48.984;8.548;2022-11-06T11:54:49;6.00;;;4.25;;
32297;SDS011;18782;48.984;8.548;2022-11-06T11:57:20;2.25;;;1.35;;
32297;SDS011;18782;48.984;8.548;2022-11-06T11:59:50;1.20;;;0.70;;
32297;SDS011;18782;48.984;8.548;2022-11-06T12:02:24;1.30;;;0.50;;
32297;SDS011;18782;48.984;8.548;2022-11-06T12:04:56;0.77;;;0.50;;
32297;SDS011;18782;48.984;8.548;2022-11-06T12:07:27;0.80;;;0.40;;
32297;SDS011;18782;48.984;8.548;2022-11-06T12:09:57;1.80;;;0.60;;
32297;SDS011;18782;48.984;8.548;2022-11-06T12:12:27;1.27;;;0.60;;
32297;SDS011;18782;48.984;8.548;2022-11-06T12:15:02;1.17;;;0.50;;
32297;SDS011;18782;48.984;8.548;2022-11-06T12:17:35;0.63;;;0.40;;
32297;SDS011;18782;48.984;8.548;2022-11-06T12:20:09;1.23;;;0.40;;
32297;SDS011;18782;48.984;8.548;2022-11-06T12:22:42;0.60;;;0.40;;
32297;SDS011;18782;48.984;8.548;2022-11-06T12:25:13;1.45;;;0.73;;
32297;SDS011;18782;48.984;8.548;2022-11-06T12:27:45;0.90;;;0.65;;
32297;SDS011;18782;48.984;8.548;2022-11-06T12:30:17;4.45;;;2.88;;
32297;SDS011;18782;48.984;8.548;2022-11-06T12:37:03;1.45;;;0.70;;
32297;SDS011;18782;48.984;8.548;2022-11-06T12:39:39;1.48;;;0.50;;
32297;SDS011;18782;48.984;8.548;2022-11-06T12:42:12;2.30;;;0.80;;
32297;SDS011;18782;48.984;8.548;2022-11-06T12:44:44;1.90;;;1.40;;
32297;SDS011;18782;48.984;8.548;2022-11-06T12:47:13;1.17;;;0.80;;
32297;SDS011;18782;48.984;8.548;2022-11-06T12:50:04;3.10;;;1.35;;
32297;SDS011;18782;48.984;8.548;2022-11-06T12:52:46;1.42;;;0.90;;
32297;SDS011;18782;48.984;8.548;2022-11-06T12:55:32;2.65;;;1.65;;
32297;SDS011;18782;48.984;8.548;2022-11-06T12:58:11;2.97;;;2.40;;
32297;SDS011;18782;48.984;8.548;2022-11-06T13:00:57;2.53;;;2.00;;
32297;SDS011;18782;48.984;8.548;2022-11-06T13:03:37;2.17;;;1.20;;
32297;SDS011;18782;48.984;8.548;2022-11-06T13:06:17;1.90;;;1.30;;
32297;SDS011;18782;48.984;8.548;2022-11-06T13:08:54;1.17;;;0.80;;
32297;SDS011;18782;48.984;8.548;2022-11-06T13:11:31;0.90;;;0.50;;
32297;SDS011;18782;48.984;8.548;2022-11-06T13:14:11;0.93;;;0.55;;
32297;SDS011;18782;48.984;8.548;2022-11-06T13:16:45;1.27;;;0.50;;
32297;SDS011;18782;48.984;8.548;2022-11-06T13:19:23;0.88;;;0.65;;
32297;SDS011;18782;48.984;8.548;2022-11-06T13:22:04;1.08;;;0.60;;
32297;SDS011;18782;48.984;8.548;2022-11-06T13:24:40;2.47;;;0.60;;
32297;SDS011;18782;48.984;8.548;2022-11-06T13:27:17;1.45;;;0.80;;
32297;SDS011;18782;48.984;8.548;2022-11-06T13:29:51;1.45;;;0.70;;
32297;SDS011;18782;48.984;8.548;2022-11-06T13:32:23;1.48;;;0.73;;
32297;SDS011;18782;48.984;8.548;2022-11-06T13:34:53;2.03;;;0.80;;
32297;SDS011;18782;48.984;8.548;2022-11-06T13:37:28;2.00;;;1.00;;
32297;SDS011;18782;48.984;8.548;2022-11-06T13:40:06;2.05;;;1.00;;
32297;SDS011;18782;48.984;8.548;2022-11-06T13:42:45;2.35;;;1.40;;
32297;SDS011;18782;48.984;8.548;2022-11-06T13:45:17;2.85;;;2.50;;
32297;SDS011;18782;48.984;8.548;2022-11-06T13:47:51;12.15;;;7.18;;
32297;SDS011;18782;48.984;8.548;2022-11-06T13:50:30;7.97;;;5.13;;
32297;SDS011;18782;48.984;8.548;2022-11-06T13:55:38;2.47;;;0.93;;
32297;SDS011;18782;48.984;8.548;2022-11-06T13:58:21;0.85;;;0.60;;
32297;SDS011;18782;48.984;8.548;2022-11-06T14:01:02;1.58;;;0.80;;
32297;SDS011;18782;48.984;8.548;2022-11-06T14:06:42;1.58;;;0.73;;
32297;SDS011;18782;48.984;8.548;2022-11-06T14:09:12;1.58;;;0.80;;
32297;SDS011;18782;48.984;8.548;2022-11-06T14:11:49;1.03;;;0.60;;
32297;SDS011;18782;48.984;8.548;2022-11-06T14:14:23;1.20;;;0.80;;
32297;SDS011;18782;48.984;8.548;2022-11-06T14:17:11;1.50;;;0.82;;
32297;SDS011;18782;48.984;8.548;2022-11-06T14:20:00;3.65;;;0.98;;
32297;SDS011;18782;48.984;8.548;2022-11-06T14:22:31;1.70;;;1.13;;
32297;SDS011;18782;48.984;8.548;2022-11-06T14:28:04;1.38;;;0.93;;
32297;SDS011;18782;48.984;8.548;2022-11-06T14:30:42;1.63;;;0.90;;
32297;SDS011;18782;48.984;8.548;2022-11-06T14:36:34;1.15;;;0.80;;
32297;SDS011;18782;48.984;8.548;2022-11-06T14:39:03;2.00;;;0.93;;
32297;SDS011;18782;48.984;8.548;2022-11-06T14:44:27;1.90;;;1.20;;
32297;SDS011;18782;48.984;8.548;2022-11-06T14:47:06;2.53;;;1.55;;
32297;SDS011;18782;48.984;8.548;2022-11-06T14:49:48;1.33;;;1.00;;
32297;SDS011;18782;48.984;8.548;2022-11-06T14:52:18;6.25;;;5.65;;
32297;SDS011;18782;48.984;8.548;2022-11-06T14:54:51;8.38;;;7.40;;
32297;SDS011;18782;48.984;8.548;2022-11-06T14:57:34;9.05;;;7.00;;
32297;SDS011;18782;48.984;8.548;2022-11-06T15:00:10;2.92;;;1.60;;
32297;SDS011;18782;48.984;8.548;2022-11-06T15:05:12;1.85;;;1.08;;
32297;SDS011;18782;48.984;8.548;2022-11-06T15:07:52;6.93;;;4.38;;
32297;SDS011;18782;48.984;8.548;2022-11-06T15:10:48;2.75;;;1.95;;
32297;SDS011;18782;48.984;8.548;2022-11-06T15:13:27;5.53;;;3.08;;
32297;SDS011;18782;48.984;8.548;2022-11-06T15:16:04;6.88;;;4.45;;
32297;SDS011;18782;48.984;8.548;2022-11-06T15:18:36;7.50;;;4.80;;
32297;SDS011;18782;48.984;8.548;2022-11-06T15:21:08;6.82;;;4.28;;
32297;SDS011;18782;48.984;8.548;2022-11-06T15:23:46;6.78;;;4.03;;
32297;SDS011;18782;48.984;8.548;2022-11-06T15:26:21;5.00;;;3.35;;
32297;SDS011;18782;48.984;8.548;2022-11-06T15:29:02;4.75;;;2.92;;
32297;SDS011;18782;48.984;8.548;2022-11-06T15:31:37;3.88;;;2.63;;
32297;SDS011;18782;48.984;8.548;2022-11-06T15:34:07;4.65;;;2.92;;
32297;SDS011;18782;48.984;8.548;2022-11-06T15:36:42;4.72;;;2.78;;
32297;SDS011;18782;48.984;8.548;2022-11-06T15:41:50;5.32;;;2.97;;
32297;SDS011;18782;48.984;8.548;2022-11-06T15:44:18;5.75;;;2.70;;
32297;SDS011;18782;48.984;8.548;2022-11-06T15:46:55;6.13;;;3.35;;
32297;SDS011;18782;48.984;8.548;2022-11-06T15:49:24;5.43;;;3.03;;
32297;SDS011;18782;48.984;8.548;2022-11-06T15:51:53;4.47;;;2.88;;
32297;SDS011;18782;48.984;8.548;2022-11-06T15:54:35;5.60;;;2.85;;
32297;SDS011;18782;48.984;8.548;2022-11-06T15:57:05;4.07;;;2.88;;
32297;SDS011;18782;48.984;8.548;2022-11-06T15:59:40;4.65;;;2.97;;